Main page
METAR-TAF:

METAR-TAF

Airports :

El Alto International Airport

La Paz, Bolivia

latitude: 16-31S, longitude: 068-11W, elevation: 4058 m

Current weather observation

The report was made 52 minutes ago, at 16:00 UTC
Wind 6 kt from the South/Southwest
Temperature 9°C
Humidity 40%
Pressure 1040 hPa
Visibility 10 km or more
Scattered clouds at a height of 1500 ft
Broken clouds at a height of 7000 ft

METAR: SLLP 211600Z 21006KT 9999 SCT015 BKN070 09/M04 Q1040

Time: 12:52 (16:52 UTC)

Forecast

The report was made 6 hours and 52 minutes ago, at 10:00 UTC
Forecast valid from 21 at 12 UTC to 22 at 12 UTC
Wind 5 kt from the West/Southwest
Visibility 10 km or more
Scattered clouds at a height of 1500 ft
Broken clouds at a height of 7000 ft
Becoming
from 21 at 13 UTC to 21 at 15 UTC
Wind 12 kt from the West
Becoming
from 21 at 23 UTC to 22 at 03 UTC
Wind 2 kt from variable directions

TAF: SLLP 211000Z 2112/2212 24005KT 9999 SCT015 BKN070 TX12/2119Z TN00/2211Z BECMG 2113/2115 27012KT BECMG 2123/2203 VRB02KT

Weather observations and forecasts of more than 4000 airports (METAR and TAF reports).

The available stations are represented by yellow and red dots on the map.

Hover mouse over dot to see the name of the station.

Then click to see weather observations and forecasts.

To change the map : click on the green buttons with a black cross to zoom in, on the green button with a dash to zoom out, or on the green arrows for adjacent maps.


METAR-TAF: